Terminal Aerodrome Forecast
Issued by NWS

Home | Current Version | Previous Version | Text Only | Print | Product List | Glossary On
Versions: 1 2 3 4 5 6 7 8 9 10 11 12
000
FTUS45 KMSO 291736
TAFSMN
TAF
KSMN 291736Z 2918/3018 00000KT P6SM SKC
     FM292200 27008KT P6SM SCT100
     FM300600 VRB05KT P6SM VCSH BKN100
     FM300800 17008KT P6SM -SHRA BKN050 OVC080
     FM301000 VRB05KT P6SM VCSH SCT080
      AMD LTD TO CLD VIS AND WIND=

USA.gov is the U.S. government's official web portal to all federal, state and local government web resources and services.